Ana Sayfa
METAR-TAF:

METAR-TAF

Havaalanları :

Burnet Municipal Airport (Kate Craddock Field)

Burnet, Teksas, Amerika Birleşik Devletleri

Enlem: 30-44-26N, Boylam: 098-14-07W, yükseklik: 392 m

Güncel hava durumu gözlemi

Rapor saat 06:53 UTC de 1 saat ve 6 dakika önce yapıldı.
Rüzgar güneydan 8 kt
Sıcaklık 27°C
Nem 74%
Basınç 1013 hPa
Görüş mesafesi: 16.1 km
Açık gökyüzü

METAR: KBMQ 190653Z AUTO 17008KT 10SM CLR 27/22 A2991 RMK AO2 SLP106 T02670222 $

Saat: 02:59 (07:59 UTC)


TAF: eksik

4.000'den fazla havaalanı için hava durumu gözlemleri ve tahminleri (METAR ve TAF raporları).

Kullanılabilir istasyonlar harita üzerinde sarı ve kırmızı noktalarla gösterilir.

İstasyonun adını görmek için fareyi noktanın üzerinde gezdirin.

Sonrasında hava gözlem ve tahminlerini görmek için tıklayın.

Haritayı değiştirmek için: yaklaştırmak için siyah artı işaretli yeşil düğmeye ve uzaklaştırmak için de eksi işaretli düğmeye hızla tıklayın; bitişik haritalar için yeşil okları kullanın.


METAR-TAF: